CDT,Max TemperatureF,Mean TemperatureF,Min TemperatureF,Max Dew PointF,MeanDew PointF,Min DewpointF,Max Humidity, Mean Humidity, Min Humidity, Max Sea Level PressureIn, Mean Sea Level PressureIn, Min Sea Level PressureIn, Max VisibilityMiles, Mean VisibilityMiles, Min VisibilityMiles, Max Wind SpeedMPH, Mean Wind SpeedMPH, Max Gust SpeedMPH,PrecipitationIn, CloudCover, Events, WindDirDegrees
2014-3-1,19,11,3,17,5,-3,91,76,61,30.45,30.28,30.01,10,4,0,18,13,22,0.25,8,Fog-Snow,352
2014-3-2,3,-3,-9,-6,-14,-19,75,60,44,30.56,30.50,30.45,10,10,10,20,13,24,0.00,3,,341
2014-3-3,12,1,-11,2,-8,-17,73,62,50,30.58,30.49,30.29,10,9,2,16,8,19,T,4,Snow,170
2014-3-4,22,13,3,14,7,1,91,74,56,30.33,30.25,30.18,10,7,1,15,8,19,0.11,6,Snow,172
2014-3-5,21,16,10,14,11,5,92,80,67,30.47,30.37,30.22,10,6,0,21,12,24,0.16,6,Fog-Snow,65
2014-3-6,24,16,8,16,12,6,92,83,74,30.44,30.25,30.03,10,9,6,20,10,23,0.00,3,,133
2014-3-7,40,27,14,32,27,12,96,83,70,30.04,29.94,29.84,6,4,2,20,12,22,0.02,5,,266
2014-3-8,33,25,17,30,23,13,89,74,59,30.30,30.21,30.04,10,8,2,17,9,20,T,6,Snow,354
2014-3-9,39,25,11,33,24,10,96,83,70,30.28,30.01,29.76,10,9,6,28,14,32,0.00,0,,210
2014-3-10,46,41,36,35,33,32,89,77,65,29.76,29.72,29.69,10,10,10,15,8,16,0.00,0,,237
2014-3-11,42,38,34,34,33,30,96,81,65,29.85,29.74,29.67,10,10,10,25,13,32,0.00,5,,24
2014-3-12,35,27,19,27,21,15,84,71,58,30.14,29.98,29.79,10,8,2,24,13,30,T,6,Snow,345
2014-3-13,44,28,12,36,24,12,92,81,63,30.13,29.97,29.76,10,10,9,21,7,25,0.00,2,,199
2014-3-14,44,39,33,34,32,29,92,78,64,29.93,29.73,29.57,10,10,10,31,17,39,0.00,1,,266
2014-3-15,36,32,27,29,26,21,100,82,63,30.27,30.13,29.94,10,6,1,17,9,21,0.09,7,Snow,28
2014-3-16,28,21,13,23,13,5,84,72,59,30.42,30.31,30.18,10,10,10,24,13,30,0.00,3,,57
2014-3-17,37,25,12,24,16,9,88,68,48,30.16,29.89,29.72,10,10,10,24,13,28,0.00,2,,164
2014-3-18,47,38,29,39,32,24,100,83,65,29.77,29.70,29.62,10,9,2,23,12,29,0.09,4,Rain,129
2014-3-19,39,33,27,39,32,23,100,86,72,30.05,29.75,29.57,10,4,0,26,14,33,0.03,8,Fog-Rain-Snow,337
2014-3-20,44,33,22,28,25,21,100,71,41,30.09,30.03,29.98,10,7,1,9,4,11,0.02,3,Fog-Snow,281
2014-3-21,56,44,31,38,30,22,76,64,51,30.00,29.88,29.73,10,10,9,30,15,36,0.00,3,,181
2014-3-22,34,27,19,27,18,8,78,61,43,30.43,30.23,29.99,10,10,10,24,16,28,0.00,4,,326
2014-3-23,29,21,12,9,6,2,67,53,39,30.53,30.46,30.41,10,10,10,17,9,23,0.00,2,,343
2014-3-24,34,25,15,27,19,9,92,68,43,30.42,30.21,30.08,10,7,0,20,9,24,0.03,6,Fog-Snow,259
2014-3-25,25,19,12,13,8,5,74,60,46,30.28,30.19,30.08,10,10,4,28,14,33,T,2,,313
2014-3-26,40,25,9,21,13,5,83,59,34,30.30,30.13,29.85,10,10,10,30,16,37,0.00,4,,179
2014-3-27,48,40,32,46,37,21,100,74,48,29.83,29.54,29.33,10,5,1,30,17,36,0.31,8,Rain-Snow-Thunderstorm,172
2014-3-28,39,35,30,39,30,27,92,81,70,30.19,29.94,29.48,10,9,5,25,8,32,T,7,Rain,352
2014-3-29,48,39,30,31,29,26,89,67,45,30.28,30.23,30.18,10,8,4,13,5,16,0.00,5,,21
2014-3-30,60,45,29,36,32,26,85,62,39,30.25,30.09,29.94,10,9,6,25,15,33,0.00,0,,172
2014-3-31,66,49,32,44,38,30,85,63,40,29.95,29.75,29.55,10,10,8,39,22,48,0.03,1,Rain,180